createdAt,value
2022-12-26T00:01:06.242Z,16.38
2022-12-26T00:03:33.622Z,16.90
2022-12-26T00:06:00.681Z,18.13
2022-12-26T00:08:27.690Z,17.25
2022-12-26T00:10:54.637Z,16.70
2022-12-26T00:13:39.875Z,23.17
2022-12-26T00:16:13.767Z,22.45
2022-12-26T00:18:41.070Z,21.15
2022-12-26T00:21:10.216Z,21.25
2022-12-26T00:23:38.056Z,20.23
2022-12-26T00:26:09.667Z,20.05
2022-12-26T00:28:37.375Z,20.92
2022-12-26T00:31:13.211Z,22.77
2022-12-26T00:33:40.426Z,24.15
2022-12-26T00:36:14.367Z,19.92
2022-12-26T00:38:42.852Z,21.40
2022-12-26T00:41:11.006Z,22.27
2022-12-26T00:43:38.024Z,24.80
2022-12-26T00:46:05.859Z,20.02
2022-12-26T00:48:33.011Z,24.77
2022-12-26T00:51:00.819Z,21.75
2022-12-26T00:53:28.624Z,23.52
2022-12-26T00:55:55.888Z,22.20
2022-12-26T00:58:23.667Z,25.33
2022-12-26T01:00:50.936Z,20.25
2022-12-26T01:03:19.036Z,20.80
2022-12-26T01:05:48.958Z,26.25
2022-12-26T01:08:22.616Z,24.27
2022-12-26T01:13:18.030Z,21.85
2022-12-26T01:15:53.118Z,19.98
2022-12-26T01:18:21.236Z,21.83
2022-12-26T01:20:48.919Z,19.52
2022-12-26T01:23:16.366Z,19.50
2022-12-26T01:26:15.865Z,22.00
2022-12-26T01:28:30.740Z,20.63
2022-12-26T01:31:02.122Z,25.00
2022-12-26T01:33:29.035Z,20.25
2022-12-26T01:35:55.898Z,24.13
2022-12-26T01:38:22.908Z,23.50
2022-12-26T01:41:10.221Z,17.77
2022-12-26T01:44:26.506Z,17.60
2022-12-26T01:46:53.934Z,22.40
2022-12-26T01:49:36.658Z,19.38
2022-12-26T01:52:12.040Z,20.10
2022-12-26T01:57:42.048Z,22.17
2022-12-26T02:00:10.430Z,20.33
2022-12-26T02:03:00.222Z,23.02
2022-12-26T02:05:35.882Z,22.23
2022-12-26T02:08:10.207Z,22.52
2022-12-26T02:10:46.600Z,19.40
2022-12-26T02:13:14.117Z,18.30
2022-12-26T02:15:41.961Z,18.23
2022-12-26T02:18:08.948Z,17.13
2022-12-26T02:20:53.940Z,15.15
2022-12-26T02:23:55.866Z,14.77
2022-12-26T02:26:39.903Z,14.15
2022-12-26T02:29:43.437Z,18.27
2022-12-26T02:32:28.453Z,17.70
2022-12-26T02:35:15.832Z,15.37
2022-12-26T02:38:24.850Z,14.77
2022-12-26T02:41:11.010Z,17.38
2022-12-26T02:44:24.685Z,12.15
2022-12-26T02:47:03.696Z,11.95
2022-12-26T02:50:04.539Z,12.63
2022-12-26T02:53:03.969Z,12.20
2022-12-26T02:55:52.877Z,12.82
2022-12-26T02:58:43.169Z,10.57
2022-12-26T03:01:46.256Z,9.60
2022-12-26T03:04:35.012Z,9.50
2022-12-26T03:07:23.985Z,9.05
2022-12-26T03:10:11.883Z,11.13
2022-12-26T03:13:12.721Z,12.18
2022-12-26T03:16:24.599Z,7.50
2022-12-26T03:18:58.973Z,10.35
2022-12-26T03:21:32.933Z,7.93
2022-12-26T03:24:00.083Z,10.40
2022-12-26T03:26:41.413Z,8.38
2022-12-26T03:29:36.873Z,6.65
2022-12-26T03:32:07.887Z,7.50
2022-12-26T03:34:40.923Z,6.60
2022-12-26T03:37:47.747Z,9.00
2022-12-26T03:40:42.904Z,6.95
2022-12-26T03:44:13.361Z,6.90
2022-12-26T03:47:35.889Z,6.10
2022-12-26T03:50:29.542Z,7.13
2022-12-26T03:53:41.467Z,6.35
2022-12-26T03:56:49.527Z,6.57
2022-12-26T03:59:44.378Z,7.57
2022-12-26T04:02:32.415Z,7.07
2022-12-26T04:05:20.331Z,6.32
2022-12-26T04:08:18.062Z,9.32
2022-12-26T04:11:13.490Z,7.95
2022-12-26T04:14:07.921Z,7.70
2022-12-26T04:16:59.188Z,8.02
2022-12-26T04:19:44.827Z,9.52
2022-12-26T04:22:48.640Z,8.80
2022-12-26T04:25:50.587Z,10.10
2022-12-26T04:28:38.754Z,6.82
2022-12-26T04:31:46.668Z,9.82
2022-12-26T04:34:42.205Z,9.48
2022-12-26T04:37:36.732Z,12.83
2022-12-26T04:40:25.946Z,8.55
2022-12-26T04:43:48.857Z,7.85
2022-12-26T04:46:00.700Z,11.02
2022-12-26T04:48:46.233Z,8.48
2022-12-26T04:51:13.131Z,10.77
2022-12-26T04:53:40.017Z,7.78
2022-12-26T04:56:07.211Z,10.93
2022-12-26T04:58:34.037Z,12.13
2022-12-26T05:01:19.482Z,10.38
2022-12-26T05:04:05.159Z,8.13
2022-12-26T05:06:50.559Z,10.90
2022-12-26T05:09:34.953Z,10.02
2022-12-26T05:12:07.684Z,5.88
2022-12-26T05:14:38.536Z,9.80
2022-12-26T05:17:26.078Z,10.93
2022-12-26T05:20:11.806Z,6.85
2022-12-26T05:25:47.466Z,11.70
2022-12-26T05:28:35.701Z,8.95
2022-12-26T05:31:02.992Z,9.82
2022-12-26T05:33:49.031Z,6.95
2022-12-26T05:36:18.686Z,11.05
2022-12-26T05:38:45.629Z,7.30
2022-12-26T05:41:12.842Z,11.10
2022-12-26T05:43:39.646Z,12.30
2022-12-26T05:46:06.689Z,6.25
2022-12-26T05:48:33.615Z,8.25
2022-12-26T05:51:01.601Z,8.07
2022-12-26T05:53:29.250Z,8.63
2022-12-26T05:56:01.589Z,9.43
2022-12-26T05:58:28.742Z,6.30
2022-12-26T06:01:14.318Z,8.93
2022-12-26T06:03:45.661Z,10.05
2022-12-26T06:06:12.930Z,10.93
2022-12-26T06:08:43.004Z,13.25
2022-12-26T06:11:13.054Z,11.75
2022-12-26T06:13:41.183Z,8.93
2022-12-26T06:16:13.390Z,6.68
2022-12-26T06:18:40.948Z,9.88
2022-12-26T06:21:15.118Z,12.95
2022-12-26T06:23:42.584Z,8.75
2022-12-26T06:26:10.362Z,12.15
2022-12-26T06:28:37.919Z,11.00
2022-12-26T06:31:07.842Z,8.15
2022-12-26T06:33:34.864Z,9.55
2022-12-26T06:36:13.595Z,12.27
2022-12-26T06:38:40.932Z,13.43
2022-12-26T06:41:10.284Z,13.63
2022-12-26T06:43:38.448Z,8.60
2022-12-26T06:46:07.633Z,9.25
2022-12-26T06:48:39.570Z,10.77
2022-12-26T06:51:17.882Z,10.02
2022-12-26T06:53:45.476Z,10.43
2022-12-26T06:56:24.739Z,12.13
2022-12-26T06:59:03.399Z,7.82
2022-12-26T07:01:32.683Z,7.78
2022-12-26T07:04:00.254Z,13.40
2022-12-26T07:06:36.294Z,11.82
2022-12-26T07:09:06.700Z,10.60
2022-12-26T07:11:36.666Z,8.20
2022-12-26T07:14:04.458Z,9.48
2022-12-26T07:16:34.022Z,16.48
2022-12-26T07:19:01.097Z,8.27
2022-12-26T07:21:28.564Z,17.20
2022-12-26T07:23:55.982Z,10.82
2022-12-26T07:26:24.405Z,16.42
2022-12-26T07:28:55.890Z,12.50
2022-12-26T07:31:23.761Z,12.10
2022-12-26T07:33:52.102Z,14.90
2022-12-26T07:36:19.378Z,15.70
2022-12-26T07:38:46.841Z,8.63
2022-12-26T07:41:33.453Z,21.77
2022-12-26T07:44:00.402Z,13.77
2022-12-26T07:46:27.541Z,8.55
2022-12-26T07:48:54.550Z,13.32
2022-12-26T07:51:21.643Z,10.93
2022-12-26T07:53:49.026Z,8.98
2022-12-26T07:56:16.500Z,6.88
2022-12-26T07:58:43.479Z,14.07
2022-12-26T08:01:10.479Z,18.25
2022-12-26T08:03:38.606Z,17.42
2022-12-26T08:06:05.857Z,15.20
2022-12-26T08:08:32.769Z,11.73
2022-12-26T08:11:07.868Z,14.90
2022-12-26T08:13:35.579Z,9.40
2022-12-26T08:16:07.496Z,15.82
2022-12-26T08:18:35.384Z,17.15
2022-12-26T08:21:02.201Z,21.13
2022-12-26T08:23:29.134Z,17.40
2022-12-26T08:25:56.024Z,19.58
2022-12-26T08:28:23.475Z,14.27
2022-12-26T08:30:50.535Z,14.82
2022-12-26T08:33:17.670Z,17.58
2022-12-26T08:35:44.978Z,18.52
2022-12-26T08:38:12.170Z,11.55
2022-12-26T08:40:43.557Z,18.67
2022-12-26T08:46:01.429Z,10.38
2022-12-26T08:48:29.139Z,12.25
2022-12-26T08:50:57.870Z,11.80
2022-12-26T08:53:25.075Z,11.85
2022-12-26T08:55:52.575Z,15.43
2022-12-26T08:58:19.631Z,18.33
2022-12-26T09:00:50.431Z,16.23
2022-12-26T09:03:22.270Z,13.30
2022-12-26T09:05:49.211Z,15.30
2022-12-26T09:08:16.135Z,14.45
2022-12-26T09:10:42.985Z,6.68
2022-12-26T09:13:10.305Z,16.13
2022-12-26T09:15:38.265Z,12.63
2022-12-26T09:18:05.248Z,13.10
2022-12-26T09:20:33.870Z,9.60
2022-12-26T09:23:00.798Z,10.25
2022-12-26T09:25:27.898Z,5.18
2022-12-26T09:27:59.111Z,14.82
2022-12-26T09:30:26.344Z,12.40
2022-12-26T09:32:53.972Z,8.80
2022-12-26T09:35:21.065Z,10.52
2022-12-26T09:37:47.908Z,5.85
2022-12-26T09:40:22.632Z,13.63
2022-12-26T09:43:24.382Z,10.32
2022-12-26T09:46:07.120Z,10.13
2022-12-26T09:48:44.810Z,8.98
2022-12-26T09:51:11.888Z,12.48
2022-12-26T09:53:44.007Z,6.88
2022-12-26T09:56:36.888Z,7.68
2022-12-26T09:59:11.337Z,9.30
2022-12-26T10:01:38.448Z,7.88
2022-12-26T10:04:14.573Z,9.40
2022-12-26T10:06:48.549Z,16.88
2022-12-26T10:09:18.405Z,12.50
2022-12-26T10:12:06.743Z,12.45
2022-12-26T10:15:01.361Z,14.20
2022-12-26T10:17:31.293Z,7.82
2022-12-26T10:20:01.179Z,11.70
2022-12-26T10:22:46.658Z,10.23
2022-12-26T10:25:18.800Z,10.05
2022-12-26T10:27:49.313Z,12.35
2022-12-26T10:30:25.410Z,7.85
2022-12-26T10:32:57.036Z,11.27
2022-12-26T10:35:36.086Z,12.07
2022-12-26T10:38:33.745Z,15.07
2022-12-26T10:41:08.162Z,16.33
2022-12-26T10:43:35.660Z,14.85
2022-12-26T10:46:05.665Z,8.35
2022-12-26T10:48:33.180Z,9.52
2022-12-26T10:51:00.098Z,13.25
2022-12-26T10:53:27.119Z,11.50
2022-12-26T10:55:54.245Z,8.35
2022-12-26T10:58:33.978Z,11.05
2022-12-26T11:01:29.052Z,5.57
2022-12-26T11:03:58.800Z,9.23
2022-12-26T11:06:39.629Z,10.55
2022-12-26T11:09:22.471Z,9.20
2022-12-26T11:11:51.627Z,12.38
2022-12-26T11:14:38.740Z,7.57
2022-12-26T11:17:13.196Z,13.65
2022-12-26T11:19:42.476Z,12.32
2022-12-26T11:22:25.947Z,14.75
2022-12-26T11:25:13.032Z,9.80
2022-12-26T11:27:43.135Z,16.02
2022-12-26T11:30:24.943Z,10.10
2022-12-26T11:33:14.559Z,8.98
2022-12-26T11:36:07.851Z,10.30
2022-12-26T11:39:01.260Z,12.68
2022-12-26T11:41:36.725Z,13.25
2022-12-26T11:44:28.663Z,8.55
2022-12-26T11:47:11.981Z,8.63
2022-12-26T11:49:53.419Z,9.45
2022-12-26T11:52:53.533Z,7.90
2022-12-26T11:55:25.579Z,6.50
2022-12-26T11:58:06.621Z,12.05
2022-12-26T12:00:44.346Z,8.98
2022-12-26T12:03:16.182Z,6.97
2022-12-26T12:05:52.788Z,12.25
2022-12-26T12:08:36.126Z,11.27
2022-12-26T12:11:21.147Z,8.40
2022-12-26T12:14:03.221Z,6.80
2022-12-26T12:16:48.546Z,11.30
2022-12-26T12:19:34.444Z,8.32
2022-12-26T12:22:32.902Z,10.65
2022-12-26T12:25:46.396Z,6.50
2022-12-26T12:28:50.917Z,6.63
2022-12-26T12:31:33.146Z,10.95
2022-12-26T12:34:30.859Z,9.55
2022-12-26T12:37:19.647Z,8.63
2022-12-26T12:40:17.945Z,17.58
2022-12-26T12:42:53.947Z,5.88
2022-12-26T12:45:28.140Z,5.40
2022-12-26T12:48:26.115Z,7.93
2022-12-26T12:51:03.819Z,9.23
2022-12-26T12:53:52.685Z,8.73
2022-12-26T12:56:41.905Z,14.13
2022-12-26T12:59:15.447Z,6.30
2022-12-26T13:01:49.611Z,7.53
2022-12-26T13:04:34.544Z,12.30
2022-12-26T13:07:12.058Z,8.75
2022-12-26T13:09:47.862Z,7.97
2022-12-26T13:12:27.265Z,9.95
2022-12-26T13:15:01.656Z,9.88
2022-12-26T13:17:36.169Z,14.68
2022-12-26T13:20:21.896Z,8.47
2022-12-26T13:23:14.442Z,12.80
2022-12-26T13:25:48.439Z,10.38
2022-12-26T13:28:29.214Z,12.15
2022-12-26T13:30:56.884Z,12.35
2022-12-26T13:33:23.993Z,14.82
2022-12-26T13:35:56.093Z,17.25
2022-12-26T13:38:24.675Z,12.02
2022-12-26T13:41:21.179Z,19.90
2022-12-26T13:44:06.587Z,14.18
2022-12-26T13:46:44.419Z,12.63
2022-12-26T13:49:29.736Z,12.73
2022-12-26T13:51:59.395Z,16.40
2022-12-26T13:54:28.822Z,13.40
2022-12-26T13:57:26.259Z,23.83
2022-12-26T14:00:06.933Z,16.67
2022-12-26T14:03:17.406Z,15.65
2022-12-26T14:06:07.350Z,13.85
2022-12-26T14:08:59.195Z,14.23
2022-12-26T14:11:28.967Z,16.38
2022-12-26T14:14:39.816Z,15.60
2022-12-26T14:17:37.390Z,13.95
2022-12-26T14:20:32.886Z,16.05
2022-12-26T14:23:28.095Z,14.43
2022-12-26T14:26:32.358Z,8.73
2022-12-26T14:29:21.649Z,13.07
2022-12-26T14:31:48.537Z,17.95
2022-12-26T14:34:24.213Z,11.95
2022-12-26T14:37:09.868Z,10.63
2022-12-26T14:39:45.894Z,12.88
2022-12-26T14:42:43.517Z,10.95
2022-12-26T14:45:28.794Z,15.60
2022-12-26T14:47:56.552Z,9.40
2022-12-26T14:50:32.460Z,9.05
2022-12-26T14:53:18.488Z,11.65
2022-12-26T14:56:32.885Z,9.88
2022-12-26T14:59:35.546Z,12.88
2022-12-26T15:02:29.592Z,6.97
2022-12-26T15:05:02.158Z,8.15
2022-12-26T15:07:57.442Z,10.48
2022-12-26T15:10:30.050Z,11.05
2022-12-26T15:13:33.886Z,14.90
2022-12-26T15:16:16.002Z,12.60
2022-12-26T15:18:57.801Z,11.60
2022-12-26T15:21:37.613Z,11.35
2022-12-26T15:25:17.507Z,19.27
2022-12-26T15:27:35.182Z,8.90
2022-12-26T15:30:38.361Z,14.15
2022-12-26T15:33:15.115Z,8.02
2022-12-26T15:35:56.729Z,7.90
2022-12-26T15:38:47.379Z,9.73
2022-12-26T15:41:37.136Z,8.93
2022-12-26T15:44:19.588Z,5.75
2022-12-26T15:46:55.288Z,5.40
2022-12-26T15:49:40.662Z,8.57
2022-12-26T15:52:36.246Z,8.05
2022-12-26T15:55:31.559Z,6.93
2022-12-26T15:58:27.147Z,17.03
2022-12-26T16:00:55.218Z,7.10
2022-12-26T16:03:32.814Z,9.48
2022-12-26T16:06:12.363Z,7.63
2022-12-26T16:09:14.908Z,5.55
2022-12-26T16:12:02.273Z,11.35
2022-12-26T16:14:35.285Z,9.48
2022-12-26T16:17:20.107Z,9.23
2022-12-26T16:19:49.527Z,9.40
2022-12-26T16:22:49.576Z,5.88
2022-12-26T16:25:24.326Z,9.15
2022-12-26T16:27:54.833Z,5.22
2022-12-26T16:30:24.106Z,12.27
2022-12-26T16:32:51.915Z,8.15
2022-12-26T16:35:23.635Z,5.40
2022-12-26T16:37:52.507Z,5.78
2022-12-26T16:40:34.756Z,11.98
2022-12-26T16:43:13.867Z,12.30
2022-12-26T16:45:41.572Z,10.68
2022-12-26T16:48:12.563Z,9.40
2022-12-26T16:50:54.050Z,15.68
2022-12-26T16:53:44.674Z,13.10
2022-12-26T16:56:29.307Z,9.70
2022-12-26T16:59:16.869Z,9.20
2022-12-26T17:02:03.242Z,8.50
2022-12-26T17:07:02.318Z,9.80
2022-12-26T17:09:41.547Z,11.32
2022-12-26T17:12:26.683Z,7.63
2022-12-26T17:14:55.438Z,9.93
2022-12-26T17:17:22.206Z,6.85
2022-12-26T17:19:54.120Z,12.18
2022-12-26T17:22:27.297Z,14.30
2022-12-26T17:25:17.091Z,12.05
2022-12-26T17:28:06.089Z,13.45
2022-12-26T17:30:33.820Z,11.75
2022-12-26T17:33:16.753Z,14.05
2022-12-26T17:36:44.797Z,11.75
2022-12-26T17:38:36.550Z,8.98
2022-12-26T17:41:06.423Z,9.18
2022-12-26T17:43:37.251Z,12.43
2022-12-26T17:46:05.440Z,7.45
2022-12-26T17:48:32.815Z,9.05
2022-12-26T17:51:05.105Z,8.57
2022-12-26T17:53:33.279Z,11.02
2022-12-26T17:56:03.656Z,12.48
2022-12-26T17:58:31.029Z,12.27
2022-12-26T18:00:59.239Z,7.72
2022-12-26T18:03:26.488Z,9.43
2022-12-26T18:05:56.375Z,11.23
2022-12-26T18:08:32.251Z,7.88
2022-12-26T18:11:01.063Z,14.35
2022-12-26T18:13:28.005Z,15.18
2022-12-26T18:15:56.334Z,9.82
2022-12-26T18:18:29.790Z,6.93
2022-12-26T18:20:56.735Z,17.65
2022-12-26T18:23:23.671Z,7.97
2022-12-26T18:25:54.472Z,5.90
2022-12-26T18:28:21.749Z,7.75
2022-12-26T18:30:48.647Z,11.88
2022-12-26T18:33:15.623Z,8.75
2022-12-26T18:35:45.238Z,9.02
2022-12-26T18:38:19.022Z,16.25
2022-12-26T18:40:48.868Z,8.68
2022-12-26T18:43:15.811Z,12.82
2022-12-26T18:45:44.518Z,8.50
2022-12-26T18:48:16.462Z,9.25
2022-12-26T18:50:43.502Z,17.60
2022-12-26T18:53:10.860Z,5.93
2022-12-26T18:55:38.911Z,9.02
2022-12-26T18:58:06.283Z,9.60
2022-12-26T19:00:33.308Z,8.07
2022-12-26T19:03:00.178Z,6.50
2022-12-26T19:05:31.037Z,8.82
2022-12-26T19:07:58.925Z,10.57
2022-12-26T19:10:29.043Z,8.32
2022-12-26T19:13:04.743Z,11.27
2022-12-26T19:15:33.580Z,8.60
2022-12-26T19:18:00.749Z,12.27
2022-12-26T19:20:28.337Z,7.95
2022-12-26T19:22:56.258Z,10.75
2022-12-26T19:25:25.297Z,9.32
2022-12-26T19:27:52.731Z,17.80
2022-12-26T19:30:21.143Z,16.23
2022-12-26T19:32:48.803Z,12.00
2022-12-26T19:35:16.613Z,12.43
2022-12-26T19:37:43.689Z,15.13
2022-12-26T19:40:11.964Z,12.50
2022-12-26T19:42:39.139Z,11.07
2022-12-26T19:45:07.963Z,14.82
2022-12-26T19:47:35.032Z,17.70
2022-12-26T19:50:02.772Z,11.00
2022-12-26T19:52:29.612Z,13.07
2022-12-26T19:54:56.797Z,7.80
2022-12-26T19:57:23.694Z,12.60
2022-12-26T19:59:51.272Z,9.35
2022-12-26T20:02:18.369Z,15.93
2022-12-26T20:04:45.660Z,12.02
2022-12-26T20:07:12.512Z,9.13
2022-12-26T20:09:39.512Z,10.50
2022-12-26T20:12:06.529Z,11.18
2022-12-26T20:14:33.456Z,13.77
2022-12-26T20:17:06.248Z,13.18
2022-12-26T20:19:34.532Z,9.18
2022-12-26T20:22:01.572Z,10.60
2022-12-26T20:24:28.455Z,12.90
2022-12-26T20:26:55.308Z,11.30
2022-12-26T20:29:22.427Z,13.77
2022-12-26T20:31:49.883Z,15.63
2022-12-26T20:34:17.444Z,10.65
2022-12-26T20:36:44.415Z,9.55
2022-12-26T20:39:14.378Z,12.50
2022-12-26T20:41:41.482Z,23.38
2022-12-26T20:44:08.441Z,17.10
2022-12-26T20:46:35.733Z,14.80
2022-12-26T20:49:04.753Z,15.05
2022-12-26T20:51:37.461Z,11.15
2022-12-26T20:54:07.198Z,16.50
2022-12-26T20:56:35.240Z,17.73
2022-12-26T20:59:03.217Z,11.98
2022-12-26T21:01:30.280Z,12.93
2022-12-26T21:03:58.164Z,11.27
2022-12-26T21:06:28.155Z,13.65
2022-12-26T21:08:56.572Z,13.52
2022-12-26T21:11:26.332Z,18.35
2022-12-26T21:13:56.873Z,16.95
2022-12-26T21:16:25.074Z,10.30
2022-12-26T21:18:52.403Z,12.00
2022-12-26T21:21:26.550Z,13.25
2022-12-26T21:23:59.742Z,10.30
2022-12-26T21:26:27.838Z,7.82
2022-12-26T21:29:00.162Z,10.15
2022-12-26T21:31:28.779Z,10.95
2022-12-26T21:33:57.109Z,16.95
2022-12-26T21:36:24.745Z,8.27
2022-12-26T21:38:55.408Z,12.68
2022-12-26T21:41:22.927Z,10.63
2022-12-26T21:43:50.230Z,18.38
2022-12-26T21:46:19.166Z,17.50
2022-12-26T21:48:50.269Z,17.23
2022-12-26T21:51:19.142Z,11.25
2022-12-26T21:53:46.734Z,12.80
2022-12-26T21:56:15.704Z,9.73
2022-12-26T21:59:02.555Z,11.02
2022-12-26T22:01:30.734Z,11.15
2022-12-26T22:04:16.690Z,7.32
2022-12-26T22:06:43.614Z,14.27
2022-12-26T22:09:11.108Z,14.90
2022-12-26T22:11:56.566Z,15.68
2022-12-26T22:14:23.494Z,14.77
2022-12-26T22:16:57.301Z,8.05
2022-12-26T22:19:24.945Z,16.55
2022-12-26T22:21:55.139Z,11.30
2022-12-26T22:24:22.568Z,10.32
2022-12-26T22:26:49.608Z,9.77
2022-12-26T22:29:16.776Z,11.23
2022-12-26T22:31:43.894Z,19.42
2022-12-26T22:34:13.137Z,12.82
2022-12-26T22:36:40.821Z,12.73
2022-12-26T22:39:08.244Z,10.70
2022-12-26T22:41:35.365Z,13.50
2022-12-26T22:44:02.217Z,9.63
2022-12-26T22:46:29.266Z,9.30
2022-12-26T22:48:56.202Z,11.50
2022-12-26T22:51:25.553Z,12.73
2022-12-26T22:53:57.705Z,11.55
2022-12-26T22:56:24.996Z,11.45
2022-12-26T22:59:03.103Z,14.45
2022-12-26T23:01:30.864Z,12.95
2022-12-26T23:03:59.799Z,5.93
2022-12-26T23:06:32.436Z,12.88
2022-12-26T23:09:02.295Z,8.77
2022-12-26T23:11:35.633Z,12.45
2022-12-26T23:14:05.071Z,12.18
2022-12-26T23:16:51.653Z,18.42
2022-12-26T23:19:44.151Z,14.73
2022-12-26T23:22:11.411Z,12.32
2022-12-26T23:24:38.259Z,12.73
2022-12-26T23:27:26.822Z,12.68
2022-12-26T23:30:13.079Z,12.77
2022-12-26T23:32:42.545Z,16.38
2022-12-26T23:35:10.977Z,15.45
2022-12-26T23:37:39.498Z,15.73
2022-12-26T23:40:08.207Z,18.20
2022-12-26T23:42:35.880Z,17.02
2022-12-26T23:45:02.936Z,9.20
2022-12-26T23:47:30.258Z,17.67
2022-12-26T23:49:57.097Z,13.10
2022-12-26T23:52:29.906Z,11.80
2022-12-26T23:54:58.480Z,12.00
2022-12-26T23:57:25.849Z,17.52
2022-12-26T23:59:52.821Z,9.65
